To NAV CANADA Home Page Login to a new session Search on AWWS site Feedback and Comments Disclaimer Vers la page française équivalente Tips FAQ What's new on the site To the Forecasts and Observations / NOTAM section To "File a Flight Plan" website Publications and other links Update of the User's profile FIC Telephone Numbers My Weather Data Folder Route Weather Data Regional Weather Data Local Weather Data To the Forecasts and Observations / NOTAM section
Request Generated 08/02/2015 at 00:11:58 UTC . Weather information available at that time is displayed.

METAR/TAF

LOURDES-DE-BLANC-SABLON/QC    

METAR CYBX 020000Z 14005KT 1 1/2SM -DZ BR OVC002 13/13 A2967 RMK
FG5ST3 SLP049=
METAR CYBX 012300Z 13005KT 1SM -DZ BR OVC002 14/13 A2967 RMK FG6ST2
SLP048 DENSITY ALT 200FT=
SPECI CYBX 012250Z 13005KT 1 1/2SM -DZ BR OVC002 14/13 A2966 RMK
FG6ST2 SLP046 DENSITY ALT 200FT=
METAR CYBX 012200Z 11003KT 1/2SM -DZ FG VV001 14/14 A2966 RMK FG8
SLP044 DENSITY ALT 300FT=

TAF AMD CYBX 020010Z 0200/0208 13005KT 11/2SM -DZ BR OVC002
BECMG 0200/0202 1/4SM -DZ FG VV001
FM020200 VRB03KT 1/4SM -DZ FG VV001
RMK NXT FCST BY 020200Z=
Your time UTC time
Weather data provided by Environment Canada and NAV CANADA